createdAt,value
2023-01-25T00:00:36.408Z,5.35
2023-01-25T00:03:10.937Z,5.24
2023-01-25T00:05:43.728Z,5.22
2023-01-25T00:08:16.773Z,5.23
2023-01-25T00:10:56.878Z,5.24
2023-01-25T00:13:30.314Z,5.30
2023-01-25T00:16:05.354Z,5.25
2023-01-25T00:18:38.124Z,5.24
2023-01-25T00:21:14.241Z,5.22
2023-01-25T00:23:47.067Z,5.18
2023-01-25T00:26:19.953Z,5.25
2023-01-25T00:28:52.844Z,5.22
2023-01-25T00:31:39.287Z,5.19
2023-01-25T00:34:38.731Z,5.18
2023-01-25T00:37:14.148Z,5.12
2023-01-25T00:39:47.010Z,5.14
2023-01-25T00:42:21.999Z,5.14
2023-01-25T00:44:57.387Z,5.11
2023-01-25T00:47:31.418Z,5.10
2023-01-25T00:50:04.049Z,5.11
2023-01-25T00:52:36.986Z,5.14
2023-01-25T00:55:10.420Z,5.20
2023-01-25T00:57:43.209Z,5.15
2023-01-25T01:00:16.500Z,5.14
2023-01-25T01:02:50.552Z,5.16
2023-01-25T01:05:23.260Z,5.14
2023-01-25T01:07:57.210Z,5.09
2023-01-25T01:10:30.542Z,5.16
2023-01-25T01:13:03.159Z,5.11
2023-01-25T01:15:37.149Z,5.17
2023-01-25T01:18:11.979Z,5.11
2023-01-25T01:20:49.123Z,5.13
2023-01-25T01:23:21.740Z,5.17
2023-01-25T01:25:54.413Z,5.18
2023-01-25T01:28:28.718Z,5.08
2023-01-25T01:31:02.154Z,5.05
2023-01-25T01:33:39.698Z,5.00
2023-01-25T01:36:13.955Z,5.11
2023-01-25T01:38:47.144Z,5.09
2023-01-25T01:41:20.456Z,5.06
2023-01-25T01:43:54.819Z,5.10
2023-01-25T01:46:29.908Z,5.07
2023-01-25T01:49:06.991Z,5.02
2023-01-25T01:51:45.545Z,4.90
2023-01-25T01:54:25.722Z,4.94
2023-01-25T01:57:01.118Z,5.02
2023-01-25T01:59:37.497Z,4.98
2023-01-25T02:02:10.387Z,4.98
2023-01-25T02:04:46.521Z,4.98
2023-01-25T02:07:21.966Z,4.97
2023-01-25T02:09:54.671Z,5.01
2023-01-25T02:12:27.721Z,5.00
2023-01-25T02:15:00.490Z,4.98
2023-01-25T02:17:33.580Z,5.00
2023-01-25T02:20:13.324Z,4.98
2023-01-25T02:22:48.405Z,4.93
2023-01-25T02:25:22.617Z,4.92
2023-01-25T02:27:57.322Z,4.91
2023-01-25T02:30:30.062Z,4.97
2023-01-25T02:33:02.692Z,4.94
2023-01-25T02:35:39.745Z,4.98
2023-01-25T02:38:14.457Z,4.92
2023-01-25T02:40:50.206Z,4.96
2023-01-25T02:43:25.148Z,4.95
2023-01-25T02:46:01.575Z,4.92
2023-01-25T02:48:34.312Z,4.82
2023-01-25T02:51:08.092Z,4.81
2023-01-25T02:53:40.777Z,4.81
2023-01-25T02:56:14.660Z,4.79
2023-01-25T02:58:47.580Z,4.73
2023-01-25T03:01:22.246Z,4.76
2023-01-25T03:03:54.952Z,4.79
2023-01-25T03:06:28.319Z,4.72
2023-01-25T03:09:01.372Z,4.78
2023-01-25T03:11:35.975Z,4.78
2023-01-25T03:14:08.670Z,4.84
2023-01-25T03:16:41.299Z,4.83
2023-01-25T03:19:13.985Z,4.76
2023-01-25T03:21:47.491Z,4.81
2023-01-25T03:24:20.826Z,4.78
2023-01-25T03:27:09.479Z,4.76
2023-01-25T03:29:49.715Z,4.79
2023-01-25T03:32:26.915Z,4.74
2023-01-25T03:34:59.594Z,4.71
2023-01-25T03:37:34.451Z,4.74
2023-01-25T03:40:07.838Z,4.78
2023-01-25T03:42:42.153Z,4.76
2023-01-25T03:45:15.756Z,4.76
2023-01-25T03:47:48.536Z,4.75
2023-01-25T03:50:21.164Z,4.81
2023-01-25T03:52:59.819Z,4.70
2023-01-25T03:55:34.175Z,4.79
2023-01-25T03:58:08.289Z,4.80
2023-01-25T04:00:41.042Z,4.76
2023-01-25T04:03:13.980Z,4.79
2023-01-25T04:05:46.570Z,4.79
2023-01-25T04:08:20.827Z,4.74
2023-01-25T04:10:54.237Z,4.68
2023-01-25T04:13:28.506Z,4.74
2023-01-25T04:16:01.631Z,4.68
2023-01-25T04:19:00.075Z,4.82
2023-01-25T04:21:34.203Z,4.84
2023-01-25T04:24:08.053Z,4.78
2023-01-25T04:26:44.123Z,4.75
2023-01-25T04:29:23.690Z,4.68
2023-01-25T04:32:00.717Z,4.71
2023-01-25T04:34:33.979Z,4.74
2023-01-25T04:37:06.680Z,4.72
2023-01-25T04:39:46.101Z,4.78
2023-01-25T04:42:18.752Z,4.71
2023-01-25T04:44:56.442Z,4.75
2023-01-25T04:47:29.867Z,4.70
2023-01-25T05:05:09.366Z,4.63
2023-01-25T05:07:42.939Z,4.58
2023-01-25T05:10:15.898Z,4.58
2023-01-25T05:13:06.129Z,4.51
2023-01-25T05:15:38.923Z,4.56
2023-01-25T05:18:11.693Z,4.59
2023-01-25T05:20:45.827Z,4.56
2023-01-25T05:23:18.578Z,4.61
2023-01-25T05:26:10.020Z,4.65
2023-01-25T05:28:43.129Z,4.58
2023-01-25T05:31:26.043Z,4.61
2023-01-25T05:33:58.696Z,4.62
2023-01-25T05:36:32.792Z,4.57
2023-01-25T05:39:06.283Z,4.60
2023-01-25T05:41:40.052Z,4.58
2023-01-25T05:44:13.145Z,4.60
2023-01-25T05:46:50.691Z,4.56
2023-01-25T05:49:23.465Z,4.54
2023-01-25T05:51:57.561Z,4.50
2023-01-25T05:54:30.303Z,4.50
2023-01-25T05:57:08.470Z,4.48
2023-01-25T05:59:41.123Z,4.53
2023-01-25T06:02:16.057Z,4.46
2023-01-25T06:04:49.648Z,4.50
2023-01-25T06:07:24.794Z,4.50
2023-01-25T06:09:57.799Z,4.55
2023-01-25T06:12:30.626Z,4.60
2023-01-25T06:15:04.921Z,4.57
2023-01-25T06:17:38.250Z,4.49
2023-01-25T06:20:23.534Z,4.50
2023-01-25T06:23:12.135Z,4.52
2023-01-25T06:25:44.802Z,4.58
2023-01-25T06:28:18.110Z,4.54
2023-01-25T07:30:23.670Z,4.41
2023-01-25T07:33:00.200Z,4.41
2023-01-25T07:35:33.290Z,4.42
2023-01-25T07:38:05.889Z,4.41
2023-01-25T07:40:38.674Z,4.36
2023-01-25T07:43:11.838Z,4.33
2023-01-25T07:45:48.620Z,4.33
2023-01-25T07:48:26.587Z,4.39
2023-01-25T07:51:13.148Z,4.40
2023-01-25T07:53:46.046Z,4.40
2023-01-25T07:56:19.320Z,4.36
2023-01-25T07:58:53.359Z,4.37
2023-01-25T08:01:27.507Z,4.41
2023-01-25T08:04:02.048Z,4.45
2023-01-25T08:06:36.180Z,4.45
2023-01-25T08:09:09.868Z,4.39
2023-01-25T08:11:43.020Z,4.40
2023-01-25T08:14:15.874Z,4.36
2023-01-25T08:16:48.447Z,4.42
2023-01-25T08:19:24.914Z,4.38
2023-01-25T08:21:57.695Z,4.36
2023-01-25T08:24:30.406Z,4.47
2023-01-25T08:27:02.989Z,4.41
2023-01-25T08:29:35.547Z,4.38
2023-01-25T08:32:08.363Z,4.40
2023-01-25T08:34:42.333Z,4.41
2023-01-25T08:37:14.900Z,4.44
2023-01-25T08:39:47.669Z,4.45
2023-01-25T08:42:21.542Z,4.46
2023-01-25T08:44:54.222Z,4.41
2023-01-25T08:47:26.912Z,4.41
2023-01-25T08:50:01.038Z,4.42
2023-01-25T08:52:33.599Z,4.48
2023-01-25T08:55:06.560Z,4.59
2023-01-25T08:57:39.243Z,4.55
2023-01-25T09:00:12.642Z,4.46
2023-01-25T09:02:45.578Z,4.43
2023-01-25T09:05:19.530Z,4.41
2023-01-25T09:07:52.023Z,4.35
2023-01-25T09:10:24.673Z,4.44
2023-01-25T09:12:57.274Z,4.52
2023-01-25T09:15:29.788Z,4.56
2023-01-25T09:18:02.438Z,4.51
2023-01-25T09:20:36.377Z,4.49
2023-01-25T09:23:09.088Z,4.52
2023-01-25T09:25:41.651Z,4.55
2023-01-25T09:28:14.782Z,4.56
2023-01-25T09:30:55.979Z,4.54
2023-01-25T09:33:57.275Z,4.60
2023-01-25T09:36:31.271Z,4.60
2023-01-25T09:39:03.996Z,4.61
2023-01-25T09:41:58.269Z,4.59
2023-01-25T09:44:38.629Z,4.57
2023-01-25T09:47:14.806Z,4.57
2023-01-25T09:49:56.323Z,4.53
2023-01-25T09:52:47.949Z,4.56
2023-01-25T09:55:22.897Z,4.52
2023-01-25T09:57:56.998Z,4.52
2023-01-25T10:00:33.167Z,4.51
2023-01-25T10:03:13.093Z,4.48
2023-01-25T10:05:47.460Z,4.51
2023-01-25T10:08:26.211Z,4.49
2023-01-25T10:11:01.205Z,4.48
2023-01-25T10:13:33.884Z,4.56
2023-01-25T10:16:14.611Z,4.52
2023-01-25T10:18:56.569Z,4.57
2023-01-25T10:21:31.939Z,4.53
2023-01-25T10:24:14.531Z,4.49
2023-01-25T10:26:51.717Z,4.50
2023-01-25T10:29:28.137Z,4.51
2023-01-25T10:32:03.301Z,4.56
2023-01-25T10:34:55.084Z,4.57
2023-01-25T10:37:29.523Z,4.66
2023-01-25T10:40:05.335Z,4.60
2023-01-25T10:42:39.242Z,4.60
2023-01-25T10:45:12.887Z,4.63
2023-01-25T10:47:48.211Z,4.65
2023-01-25T10:50:39.733Z,4.64
2023-01-25T10:53:21.368Z,4.64
2023-01-25T10:56:17.026Z,4.63
2023-01-25T10:58:51.829Z,4.67
2023-01-25T11:01:31.064Z,4.69
2023-01-25T11:04:04.089Z,4.63
2023-01-25T11:06:37.986Z,4.62
2023-01-25T11:09:25.500Z,4.70
2023-01-25T11:11:58.864Z,4.76
2023-01-25T11:14:33.577Z,4.75
2023-01-25T11:17:07.243Z,4.71
2023-01-25T11:19:41.086Z,4.74
2023-01-25T11:22:21.664Z,4.69
2023-01-25T11:24:54.565Z,4.71
2023-01-25T11:27:30.512Z,4.75
2023-01-25T11:30:11.025Z,4.74
2023-01-25T11:32:44.072Z,4.76
2023-01-25T11:35:17.939Z,4.75
2023-01-25T11:38:00.492Z,4.73
2023-01-25T11:40:37.056Z,4.83
2023-01-25T11:43:18.995Z,4.80
2023-01-25T11:46:03.814Z,4.76
2023-01-25T11:48:47.139Z,4.81
2023-01-25T11:51:24.995Z,4.89
2023-01-25T11:54:06.222Z,4.82
2023-01-25T11:56:46.208Z,4.95
2023-01-25T11:59:41.159Z,4.87
2023-01-25T12:02:28.647Z,4.92
2023-01-25T12:05:21.520Z,4.94
2023-01-25T12:08:00.223Z,4.95
2023-01-25T12:10:39.967Z,4.87
2023-01-25T12:13:16.194Z,4.89
2023-01-25T12:15:59.825Z,4.95
2023-01-25T12:18:42.884Z,4.90
2023-01-25T12:21:30.731Z,4.94
2023-01-25T12:24:14.495Z,5.02
2023-01-25T12:26:51.420Z,5.01
2023-01-25T12:29:27.436Z,5.05
2023-01-25T12:32:03.471Z,5.07
2023-01-25T12:34:38.676Z,4.98
2023-01-25T12:37:15.363Z,5.01
2023-01-25T12:39:49.826Z,5.02
2023-01-25T12:42:25.920Z,5.10
2023-01-25T12:45:00.874Z,5.08
2023-01-25T12:47:39.142Z,5.11
2023-01-25T12:50:17.006Z,5.10
2023-01-25T12:52:51.734Z,5.08
2023-01-25T12:55:24.676Z,5.22
2023-01-25T12:58:00.252Z,5.24
2023-01-25T13:00:36.619Z,5.11
2023-01-25T13:03:16.781Z,5.09
2023-01-25T13:05:54.923Z,5.13
2023-01-25T13:08:36.566Z,5.02
2023-01-25T13:11:13.566Z,5.14
2023-01-25T13:13:46.233Z,5.18
2023-01-25T13:16:33.282Z,5.16
2023-01-25T13:19:06.238Z,5.13
2023-01-25T13:21:41.393Z,5.15
2023-01-25T13:24:24.039Z,5.16
2023-01-25T13:27:01.163Z,5.13
2023-01-25T13:29:54.723Z,5.17
2023-01-25T13:32:46.327Z,5.11
2023-01-25T13:35:26.721Z,5.16
2023-01-25T13:38:02.246Z,5.14
2023-01-25T13:40:38.943Z,5.23
2023-01-25T13:43:19.066Z,5.19
2023-01-25T13:45:55.895Z,5.17
2023-01-25T13:48:33.494Z,5.22
2023-01-25T13:51:09.614Z,5.14
2023-01-25T13:53:45.478Z,5.17
2023-01-25T13:56:28.472Z,5.23
2023-01-25T13:59:01.386Z,5.25
2023-01-25T14:01:36.029Z,5.13
2023-01-25T14:04:12.941Z,5.24
2023-01-25T14:06:46.268Z,5.22
2023-01-25T14:09:22.692Z,5.13
2023-01-25T14:11:56.395Z,5.19
2023-01-25T14:14:31.227Z,5.13
2023-01-25T14:19:38.349Z,5.20
2023-01-25T14:22:14.625Z,5.14
2023-01-25T14:25:00.460Z,5.12
2023-01-25T14:27:34.264Z,5.14
2023-01-25T14:30:07.831Z,5.10
2023-01-25T14:32:42.811Z,5.14
2023-01-25T14:35:56.382Z,5.19
2023-01-25T14:38:32.137Z,5.13
2023-01-25T14:41:12.293Z,5.18
2023-01-25T14:43:46.885Z,5.20
2023-01-25T14:46:23.806Z,5.24
2023-01-25T14:49:10.100Z,5.22
2023-01-25T14:51:45.425Z,5.18
2023-01-25T14:54:19.428Z,5.17
2023-01-25T14:56:54.552Z,5.11
2023-01-25T14:59:29.697Z,5.16
2023-01-25T15:02:04.359Z,5.13
2023-01-25T15:04:37.130Z,5.07
2023-01-25T15:07:31.054Z,5.08
2023-01-25T15:10:05.419Z,5.17
2023-01-25T15:12:39.621Z,5.22
2023-01-25T15:15:20.036Z,5.13
2023-01-25T15:17:52.718Z,5.12
2023-01-25T15:20:29.280Z,5.05
2023-01-25T15:23:05.437Z,5.10
2023-01-25T15:25:49.207Z,5.14
2023-01-25T15:28:24.419Z,5.10
2023-01-25T15:30:59.415Z,5.15
2023-01-25T15:33:32.831Z,5.14
2023-01-25T15:36:05.868Z,5.19
2023-01-25T15:38:38.620Z,5.13
2023-01-25T15:41:12.366Z,5.17
2023-01-25T15:43:46.403Z,5.13
2023-01-25T15:46:20.493Z,5.16
2023-01-25T15:48:53.938Z,5.10
2023-01-25T15:51:26.842Z,5.24
2023-01-25T15:54:02.253Z,5.13
2023-01-25T15:56:37.110Z,5.13
2023-01-25T15:59:16.117Z,5.12
2023-01-25T16:01:48.883Z,5.14
2023-01-25T16:04:21.563Z,5.07
2023-01-25T16:06:55.582Z,5.05
2023-01-25T16:09:29.930Z,5.09
2023-01-25T16:12:02.875Z,5.08
2023-01-25T16:14:36.855Z,5.06
2023-01-25T16:17:16.831Z,4.90
2023-01-25T16:19:49.816Z,4.91
2023-01-25T16:25:34.257Z,5.07
2023-01-25T19:04:38.787Z,4.72
2023-01-25T19:07:12.162Z,4.72
2023-01-25T19:09:45.052Z,4.78
2023-01-25T19:12:18.040Z,4.81
2023-01-25T19:14:51.483Z,4.81
2023-01-25T19:17:24.276Z,4.75
2023-01-25T19:19:58.464Z,4.78
2023-01-25T19:22:31.310Z,4.75
2023-01-25T19:25:04.413Z,4.76
2023-01-25T19:27:37.091Z,4.74
2023-01-25T19:30:10.400Z,4.73
2023-01-25T19:32:46.466Z,4.74
2023-01-25T19:35:24.251Z,4.65
2023-01-25T19:37:59.865Z,4.66
2023-01-25T19:40:36.180Z,4.73
2023-01-25T19:43:09.044Z,4.67
2023-01-25T19:45:42.405Z,4.72
2023-01-25T19:48:15.639Z,4.73
2023-01-25T19:50:50.011Z,4.83
2023-01-25T19:53:25.365Z,4.78
2023-01-25T19:56:01.981Z,4.87
2023-01-25T19:58:35.300Z,4.77
2023-01-25T20:01:11.087Z,4.76
2023-01-25T20:03:44.316Z,4.83
2023-01-25T20:06:19.943Z,4.84
2023-01-25T20:08:53.249Z,4.84
2023-01-25T20:11:26.939Z,4.84
2023-01-25T20:14:00.469Z,4.83
2023-01-25T20:16:41.514Z,4.79
2023-01-25T20:19:17.176Z,4.87
2023-01-25T20:21:51.604Z,4.82
2023-01-25T20:24:24.850Z,4.87
2023-01-25T20:26:59.018Z,4.83
2023-01-25T20:29:31.747Z,4.86
2023-01-25T20:32:07.920Z,4.83
2023-01-25T20:34:42.846Z,4.80
2023-01-25T20:37:21.283Z,4.77
2023-01-25T20:39:54.333Z,4.83
2023-01-25T20:42:28.560Z,4.84
2023-01-25T20:45:01.312Z,4.85
2023-01-25T20:47:34.316Z,4.83
2023-01-25T20:50:10.967Z,4.86
2023-01-25T20:52:45.913Z,4.87
2023-01-25T20:55:19.045Z,4.93
2023-01-25T20:57:54.278Z,4.84
2023-01-25T21:00:27.394Z,4.81
2023-01-25T21:03:00.472Z,4.83
2023-01-25T21:05:33.674Z,4.85
2023-01-25T21:08:08.013Z,4.91
2023-01-25T21:10:40.777Z,4.88
2023-01-25T21:13:13.370Z,4.94
2023-01-25T21:15:46.066Z,4.90
2023-01-25T21:18:18.744Z,4.81
2023-01-25T21:20:51.402Z,4.82
2023-01-25T21:23:25.371Z,4.82
2023-01-25T21:25:58.481Z,4.83
2023-01-25T21:28:31.116Z,4.82
2023-01-25T21:31:07.981Z,4.84
2023-01-25T21:33:40.948Z,4.82
2023-01-25T21:36:15.229Z,4.81
2023-01-25T21:38:50.234Z,4.83
2023-01-25T21:41:24.475Z,4.83
2023-01-25T21:44:15.335Z,4.85
2023-01-25T21:49:58.236Z,4.85
2023-01-25T21:52:30.994Z,4.83
2023-01-25T21:55:05.176Z,4.80
2023-01-25T21:57:40.923Z,4.86
2023-01-25T22:00:14.692Z,4.83
2023-01-25T22:02:47.454Z,4.83
2023-01-25T22:05:20.105Z,4.87
2023-01-25T22:07:52.734Z,4.85
2023-01-25T22:10:27.536Z,4.87
2023-01-25T22:13:00.217Z,4.81
2023-01-25T22:15:33.912Z,4.82
2023-01-25T22:18:06.865Z,4.85
2023-01-25T22:20:39.774Z,4.81
2023-01-25T22:23:12.467Z,4.82
2023-01-25T22:25:47.777Z,4.83
2023-01-25T22:28:20.684Z,4.76
2023-01-25T22:30:53.565Z,4.85
2023-01-25T22:33:26.387Z,4.79
2023-01-25T22:35:59.201Z,4.81
2023-01-25T22:38:31.863Z,4.75
2023-01-25T22:41:08.098Z,4.79
2023-01-25T22:43:41.428Z,4.82
2023-01-25T22:46:17.182Z,4.72
2023-01-25T22:48:50.111Z,4.78
2023-01-25T22:51:25.425Z,4.70
2023-01-25T22:53:59.268Z,4.70
2023-01-25T22:56:33.920Z,4.81
2023-01-25T22:59:08.032Z,4.77
2023-01-25T23:01:40.649Z,4.80
2023-01-25T23:04:13.370Z,4.81
2023-01-25T23:06:46.195Z,4.85
2023-01-25T23:09:18.872Z,4.75
2023-01-25T23:11:52.940Z,4.77
2023-01-25T23:14:43.197Z,4.73
2023-01-25T23:17:33.358Z,4.78
2023-01-25T23:20:07.303Z,4.78
2023-01-25T23:22:40.312Z,4.71
2023-01-25T23:25:13.140Z,4.78
2023-01-25T23:27:48.699Z,4.78
2023-01-25T23:30:21.432Z,4.74
2023-01-25T23:32:54.219Z,4.74
2023-01-25T23:35:27.355Z,4.78
2023-01-25T23:38:00.176Z,4.85
2023-01-25T23:40:32.894Z,4.80
2023-01-25T23:43:07.158Z,4.84
2023-01-25T23:45:39.886Z,4.77
2023-01-25T23:48:12.510Z,4.80
2023-01-25T23:50:45.195Z,4.77
2023-01-25T23:53:17.729Z,4.74
2023-01-25T23:55:53.591Z,4.82
2023-01-25T23:58:28.389Z,4.76
